Time;durP1;ratioP1;P1;durP2;ratioP2;P2;SDS_P1;SDS_P2;PMS_P1;PMS_P2;Temp;Humidity;BMP_temperature;BMP_pressure;BME280_temperature;BME280_humidity;BME280_pressure;Samples;Min_cycle;Max_cycle;Signal;HPM_P1;HPM_P2
2021/03/05 00:00:22;;;;;;;5.60;2.65;;;;;;;9.00;57.17;101770.81;5012853;28;20398;-66
2021/03/05 00:02:49;;;;;;;5.97;2.80;;;;;;;8.89;57.00;101771.25;5013175;28;20383;-66
2021/03/05 00:05:17;;;;;;;10.20;4.60;;;;;;;8.86;56.55;101768.53;5012537;28;20050;-66
2021/03/05 00:07:46;;;;;;;7.15;3.50;;;;;;;8.93;56.74;101765.25;5012549;28;20037;-66
2021/03/05 00:10:16;;;;;;;7.32;2.90;;;;;;;8.93;57.04;101765.25;5012465;28;20742;-66
2021/03/05 00:12:43;;;;;;;6.63;3.13;;;;;;;8.90;57.16;101762.53;5013286;28;20072;-66
2021/03/05 00:15:11;;;;;;;7.00;5.13;;;;;;;8.81;56.32;101765.69;5012017;28;20057;-68
2021/03/05 00:17:39;;;;;;;8.73;4.55;;;;;;;8.63;55.94;101764.97;4995339;28;20046;-66
2021/03/05 00:20:09;;;;;;;5.93;2.92;;;;;;;8.63;56.15;101763.25;5012032;28;20038;-66
2021/03/05 00:22:36;;;;;;;7.32;2.20;;;;;;;8.72;56.47;101758.38;5013205;28;20045;-66
2021/03/05 00:25:06;;;;;;;7.80;2.67;;;;;;;8.82;55.70;101758.69;5011877;28;20040;-66
2021/03/05 00:27:33;;;;;;;4.57;1.58;;;;;;;8.60;55.16;101757.84;5012070;28;20044;-66
2021/03/05 00:30:01;;;;;;;7.05;3.88;;;;;;;8.68;55.05;101752.91;5012518;28;20037;-66
2021/03/05 00:32:28;;;;;;;5.93;3.05;;;;;;;8.78;55.15;101750.69;5012893;28;20045;-66
2021/03/05 00:34:55;;;;;;;6.65;2.72;;;;;;;8.84;55.10;101747.41;5012695;28;20557;-66
2021/03/05 00:37:22;;;;;;;5.75;2.10;;;;;;;8.88;55.29;101745.75;5012207;28;20484;-68
2021/03/05 00:39:49;;;;;;;4.05;2.00;;;;;;;8.92;55.00;101748.59;5012024;28;20026;-68
2021/03/05 00:42:18;;;;;;;5.85;3.25;;;;;;;8.90;55.17;101739.72;5011681;28;20045;-66
2021/03/05 00:44:45;;;;;;;5.43;2.67;;;;;;;8.74;54.87;101743.50;5012379;28;20045;-66
2021/03/05 00:47:12;;;;;;;5.05;2.30;;;;;;;8.65;54.40;101739.63;5012149;28;20544;-66
2021/03/05 00:49:39;;;;;;;4.22;2.20;;;;;;;8.58;54.18;101749.03;5012353;28;20072;-66
2021/03/05 00:52:07;;;;;;;17.95;7.95;;;;;;;8.58;54.34;101745.50;5011396;28;20034;-66
2021/03/05 00:54:34;;;;;;;7.55;2.80;;;;;;;8.59;54.47;101744.66;5012123;28;20073;-66
2021/03/05 00:57:01;;;;;;;6.32;1.60;;;;;;;8.58;54.13;101746.41;5011803;28;20446;-66
2021/03/05 00:59:30;;;;;;;3.30;1.30;;;;;;;8.52;53.98;101745.25;5011711;28;20034;-66
2021/03/05 01:01:57;;;;;;;2.47;1.50;;;;;;;8.52;54.05;101740.88;4992907;28;20113;-66
2021/03/05 01:04:24;;;;;;;3.95;1.70;;;;;;;8.54;54.13;101738.28;5007876;28;20042;-66
2021/03/05 01:06:51;;;;;;;5.05;1.52;;;;;;;8.50;54.15;101734.66;5012026;28;20446;-66
2021/03/05 01:09:18;;;;;;;5.03;1.60;;;;;;;8.53;54.10;101737.44;5011543;28;20449;-66
2021/03/05 01:11:46;;;;;;;8.63;3.80;;;;;;;8.46;53.92;101732.75;5011337;28;20380;-66
2021/03/05 01:14:13;;;;;;;4.18;1.67;;;;;;;8.48;53.89;101741.59;5011077;28;20054;-66
2021/03/05 01:16:42;;;;;;;7.45;2.45;;;;;;;8.48;53.96;101725.78;5012067;28;20483;-66
2021/03/05 01:19:11;;;;;;;5.13;2.20;;;;;;;8.48;54.09;101733.69;5011044;28;20096;-67
2021/03/05 01:21:39;;;;;;;6.35;2.28;;;;;;;8.47;55.16;101738.91;5011797;28;20041;-66
2021/03/05 01:24:07;;;;;;;3.03;1.40;;;;;;;8.49;54.83;101738.13;5011562;28;20065;-66
2021/03/05 01:26:35;;;;;;;5.22;2.50;;;;;;;8.37;54.23;101722.75;5011265;28;20046;-66
2021/03/05 01:29:02;;;;;;;5.80;2.47;;;;;;;8.35;54.58;101728.78;5011333;28;20098;-66
2021/03/05 01:31:29;;;;;;;10.13;4.55;;;;;;;8.31;54.24;101727.78;5011100;28;20034;-67
2021/03/05 01:33:58;;;;;;;10.40;5.60;;;;;;;8.37;54.41;101722.75;5011441;28;20443;-66
2021/03/05 01:36:25;;;;;;;8.75;3.50;;;;;;;8.37;54.30;101740.28;5010796;28;20880;-66
2021/03/05 01:38:52;;;;;;;11.95;5.57;;;;;;;8.27;54.72;101735.47;5011256;28;20542;-66
2021/03/05 01:41:19;;;;;;;13.27;6.57;;;;;;;8.29;54.99;101736.38;5010835;28;20034;-66
2021/03/05 01:43:47;;;;;;;8.18;3.97;;;;;;;8.30;55.54;101738.19;5010563;28;20563;-66
2021/03/05 01:46:17;;;;;;;20.98;11.68;;;;;;;8.33;55.66;101738.38;5009880;28;20054;-66
2021/03/05 01:48:45;;;;;;;12.02;5.60;;;;;;;8.30;55.76;101741.75;5011629;28;20036;-66
2021/03/05 01:51:16;;;;;;;4.95;2.45;;;;;;;8.30;55.79;101728.59;5010443;28;20033;-66
2021/03/05 01:53:44;;;;;;;7.05;2.83;;;;;;;8.39;56.25;101735.97;5010696;28;20064;-66
2021/03/05 01:56:31;;;;;;;6.68;2.67;;;;;;;8.49;56.83;101727.59;5010481;28;20054;-66
2021/03/05 01:58:58;;;;;;;5.03;2.72;;;;;;;8.57;57.46;101730.53;5010565;28;20045;-66
2021/03/05 02:01:26;;;;;;;7.75;4.18;;;;;;;8.51;57.79;101730.28;5010411;28;20430;-66
2021/03/05 02:03:53;;;;;;;8.32;6.13;;;;;;;8.38;56.75;101718.38;5011276;28;20060;-66
2021/03/05 02:06:23;;;;;;;6.97;3.40;;;;;;;8.41;57.07;101723.75;5010102;28;20125;-66
2021/03/05 02:08:50;;;;;;;6.50;3.20;;;;;;;8.32;57.49;101721.69;5011031;28;20129;-66
2021/03/05 02:11:17;;;;;;;7.63;4.30;;;;;;;8.29;57.35;101716.25;5010317;28;20061;-66
2021/03/05 02:13:44;;;;;;;7.20;3.50;;;;;;;8.26;57.74;101717.88;5010938;28;20048;-65
2021/03/05 02:16:21;;;;;;;6.38;3.40;;;;;;;8.31;57.98;101724.25;5010155;28;20130;-66
2021/03/05 02:18:55;;;;;;;7.05;2.72;;;;;;;8.27;58.36;101724.94;5010320;28;20493;-66
2021/03/05 02:21:51;;;;;;;5.38;3.10;;;;;;;8.24;58.44;101722.16;5010013;28;20041;-66
2021/03/05 02:24:42;;;;;;;11.20;7.60;;;;;;;8.21;57.91;101716.75;5010112;28;20038;-66
2021/03/05 02:27:32;;;;;;;6.72;3.50;;;;;;;8.21;58.11;101722.94;5009905;28;20531;-66
2021/03/05 02:30:35;;;;;;;6.40;3.03;;;;;;;8.19;58.44;101719.34;5010787;28;20106;-66
2021/03/05 02:33:12;;;;;;;6.88;3.40;;;;;;;8.14;58.14;101722.66;4996854;28;20129;-66
2021/03/05 02:35:40;;;;;;;7.60;3.45;;;;;;;8.11;58.52;101719.88;5010497;28;20038;-66
2021/03/05 02:38:11;;;;;;;8.38;5.13;;;;;;;8.10;58.12;101720.69;5008862;28;20371;-66
2021/03/05 02:40:40;;;;;;;11.23;6.25;;;;;;;8.11;58.05;101723.41;5010417;28;20034;-66
2021/03/05 02:43:11;;;;;;;6.28;3.10;;;;;;;8.17;58.26;101721.03;5009646;28;20116;-66
2021/03/05 02:45:41;;;;;;;10.57;5.10;;;;;;;8.15;58.19;101730.56;5010664;28;20034;-66
2021/03/05 02:48:13;;;;;;;4.55;2.10;;;;;;;8.19;58.39;101731.59;5009414;28;20052;-66
2021/03/05 02:50:42;;;;;;;5.95;2.97;;;;;;;8.20;58.70;101728.16;5009352;28;20057;-66
2021/03/05 02:53:13;;;;;;;6.03;2.70;;;;;;;8.21;59.13;101722.94;5009481;28;20387;-66
2021/03/05 02:55:41;;;;;;;11.48;5.57;;;;;;;8.17;58.65;101718.38;5010584;28;20030;-66
2021/03/05 02:58:13;;;;;;;12.27;6.57;;;;;;;8.20;58.01;101721.16;5008806;28;20030;-66
2021/03/05 03:00:41;;;;;;;9.43;4.80;;;;;;;8.17;57.47;101725.38;5010330;28;20387;-66
2021/03/05 03:03:12;;;;;;;8.40;3.58;;;;;;;8.11;57.80;101725.13;5009397;28;20038;-66
2021/03/05 03:05:39;;;;;;;5.65;2.85;;;;;;;7.98;58.39;101731.63;4991687;28;20037;-65
2021/03/05 03:08:10;;;;;;;8.55;3.47;;;;;;;7.90;58.34;101728.66;5009106;28;20070;-66
2021/03/05 03:10:38;;;;;;;6.43;3.03;;;;;;;7.89;58.54;101725.97;5010258;28;20583;-66
2021/03/05 03:13:07;;;;;;;8.18;3.53;;;;;;;7.88;59.15;101729.44;5009736;28;20037;-67
2021/03/05 03:15:35;;;;;;;5.63;2.67;;;;;;;7.95;59.40;101720.97;4992777;28;20048;-66
2021/03/05 03:18:06;;;;;;;7.80;2.63;;;;;;;8.09;59.97;101719.81;5009105;28;20125;-66
2021/03/05 03:20:34;;;;;;;5.28;2.60;;;;;;;8.08;59.31;101722.38;5010098;28;20129;-66
2021/03/05 03:23:02;;;;;;;6.97;2.60;;;;;;;7.91;58.96;101725.22;5009107;28;20507;-66
2021/03/05 03:25:29;;;;;;;5.38;2.80;;;;;;;7.86;58.09;101720.59;5009923;28;20041;-65
2021/03/05 03:27:56;;;;;;;7.60;3.42;;;;;;;7.86;58.17;101720.59;5009550;28;20053;-66
2021/03/05 03:30:25;;;;;;;5.43;2.40;;;;;;;7.94;58.17;101730.56;5009449;28;20045;-66
2021/03/05 03:32:53;;;;;;;6.30;2.60;;;;;;;7.94;58.25;101725.31;5009693;28;20042;-66
2021/03/05 03:35:21;;;;;;;5.15;2.42;;;;;;;7.97;58.37;101724.56;5009477;28;20142;-66
2021/03/05 03:37:51;;;;;;;7.13;2.53;;;;;;;8.02;58.42;101717.75;5009393;28;20868;-66
2021/03/05 03:40:20;;;;;;;6.72;2.13;;;;;;;8.03;59.43;101719.56;5008507;28;20506;-66
2021/03/05 03:42:47;;;;;;;6.60;1.80;;;;;;;8.16;59.43;101716.59;5009904;28;20117;-66
2021/03/05 03:45:17;;;;;;;5.47;1.90;;;;;;;8.04;59.88;101716.09;5009156;28;20621;-66
2021/03/05 03:47:44;;;;;;;4.53;2.20;;;;;;;7.99;60.06;101713.28;5009612;28;20042;-65
2021/03/05 03:50:20;;;;;;;5.57;2.40;;;;;;;8.00;60.32;101715.09;5008746;28;20418;-66
2021/03/05 03:52:52;;;;;;;4.63;2.13;;;;;;;7.97;60.35;101720.19;5009414;28;20498;-66
2021/03/05 03:55:20;;;;;;;6.82;2.40;;;;;;;7.93;60.86;101714.75;5009394;28;20068;-66
2021/03/05 03:57:49;;;;;;;6.18;3.25;;;;;;;8.02;60.57;101717.75;5009422;28;20046;-66
2021/03/05 04:00:18;;;;;;;9.48;2.85;;;;;;;7.86;60.18;101718.88;5009009;28;20042;-66
2021/03/05 04:02:49;;;;;;;6.20;2.53;;;;;;;7.76;60.19;101716.66;5009175;28;20045;-66
2021/03/05 04:05:19;;;;;;;6.45;2.70;;;;;;;7.79;60.45;101719.44;5008650;28;20288;-66
2021/03/05 04:07:47;;;;;;;6.53;2.60;;;;;;;7.82;60.46;101718.66;5009100;28;20480;-65
2021/03/05 04:10:17;;;;;;;7.45;2.80;;;;;;;7.80;60.53;101713.34;5009095;28;20141;-66
2021/03/05 04:12:46;;;;;;;7.22;5.53;;;;;;;7.77;60.40;101713.22;5009482;28;20121;-66
2021/03/05 04:15:14;;;;;;;7.22;3.97;;;;;;;7.72;60.15;101721.75;5008887;28;20057;-66
2021/03/05 04:17:41;;;;;;;7.10;3.75;;;;;;;7.77;59.91;101714.94;5011927;28;20125;-66
2021/03/05 04:20:14;;;;;;;4.97;2.00;;;;;;;7.80;59.77;101718.63;5011722;28;20446;-66
2021/03/05 04:22:42;;;;;;;5.03;2.13;;;;;;;7.79;59.94;101722.06;5012728;28;20034;-66
2021/03/05 04:25:11;;;;;;;5.70;2.08;;;;;;;7.83;60.08;101720.44;5012786;28;20030;-66
2021/03/05 04:27:40;;;;;;;3.15;1.35;;;;;;;7.89;59.93;101718.09;5012682;28;20124;-66
2021/03/05 04:30:08;;;;;;;5.05;2.03;;;;;;;7.90;59.77;101726.03;5012379;28;20048;-66
2021/03/05 04:32:37;;;;;;;5.78;3.90;;;;;;;7.79;59.30;101729.97;5012571;28;20054;-65
2021/03/05 04:35:05;;;;;;;6.85;2.90;;;;;;;7.70;58.90;101740.06;5012257;28;20030;-66
2021/03/05 04:37:32;;;;;;;7.15;4.68;;;;;;;7.55;58.90;101734.13;5012572;28;20045;-66
2021/03/05 04:39:59;;;;;;;3.72;2.30;;;;;;;7.52;58.49;101742.81;5012220;28;20044;-66
2021/03/05 04:42:26;;;;;;;5.93;3.67;;;;;;;7.52;57.97;101742.81;5012182;28;20506;-66
2021/03/05 04:44:55;;;;;;;3.53;1.70;;;;;;;7.42;57.28;101735.34;5012346;28;20050;-66
2021/03/05 04:47:22;;;;;;;2.75;1.50;;;;;;;7.20;56.99;101733.50;5011992;28;20038;-66
2021/03/05 04:49:49;;;;;;;6.85;2.33;;;;;;;7.12;57.15;101732.28;5012451;28;20096;-66
2021/03/05 04:52:17;;;;;;;3.47;1.98;;;;;;;7.12;57.44;101734.91;5011883;28;20426;-66
2021/03/05 04:54:44;;;;;;;3.90;1.52;;;;;;;7.19;57.65;101743.94;5011689;28;20125;-66
2021/03/05 04:57:11;;;;;;;5.18;2.03;;;;;;;7.20;57.45;101740.50;5011888;28;20052;-66
2021/03/05 04:59:39;;;;;;;7.70;3.10;;;;;;;7.25;57.49;101738.06;5012015;28;20100;-66
2021/03/05 05:02:07;;;;;;;8.82;4.25;;;;;;;7.39;57.74;101737.84;5011673;28;20117;-66
2021/03/05 05:04:34;;;;;;;14.35;7.03;;;;;;;7.58;57.74;101742.16;5011469;28;20030;-66
2021/03/05 05:07:01;;;;;;;8.93;4.68;;;;;;;7.69;57.82;101740.00;5011687;28;20462;-65
2021/03/05 05:09:28;;;;;;;8.60;4.60;;;;;;;7.78;58.13;101743.94;5012194;28;20487;-66
2021/03/05 05:11:56;;;;;;;9.05;3.55;;;;;;;7.71;57.86;101751.47;5011922;28;20129;-65
2021/03/05 05:14:23;;;;;;;18.00;9.75;;;;;;;7.74;58.48;101749.00;5010904;28;20034;-64
2021/03/05 05:16:50;;;;;;;14.32;6.38;;;;;;;7.76;58.36;101755.19;5011731;28;20038;-66
2021/03/05 05:19:19;;;;;;;12.93;4.03;;;;;;;7.86;57.57;101754.78;5011116;28;20042;-66
2021/03/05 05:21:46;;;;;;;10.25;5.35;;;;;;;8.04;57.35;101762.53;5011504;28;20040;-66
2021/03/05 05:24:13;;;;;;;11.07;4.15;;;;;;;8.36;57.66;101756.88;5010908;28;20521;-66
2021/03/05 05:26:40;;;;;;;8.02;4.20;;;;;;;8.62;58.07;101750.03;5011405;28;20080;-66
2021/03/05 05:29:07;;;;;;;10.27;5.03;;;;;;;8.88;57.93;101758.94;5010090;28;20399;-66
2021/03/05 05:31:34;;;;;;;11.75;4.75;;;;;;;9.11;57.83;101758.97;4994422;28;20045;-66
2021/03/05 05:34:02;;;;;;;13.48;6.20;;;;;;;9.34;57.87;101756.28;5011222;28;20045;-67
2021/03/05 05:36:30;;;;;;;8.45;4.45;;;;;;;9.63;57.92;101754.69;4993844;28;20038;-66
2021/03/05 05:38:57;;;;;;;6.47;3.35;;;;;;;9.85;58.40;101759.84;5011021;28;20052;-66
2021/03/05 05:41:25;;;;;;;12.15;5.78;;;;;;;10.09;58.44;101766.00;5010459;28;20049;-66
2021/03/05 05:43:52;;;;;;;19.75;9.98;;;;;;;10.32;58.86;101764.13;5010911;28;20120;-66
2021/03/05 05:46:22;;;;;;;20.17;10.95;;;;;;;10.62;58.88;101764.22;5011218;28;20057;-66
2021/03/05 05:48:50;;;;;;;13.07;7.93;;;;;;;10.86;59.22;101774.66;5011096;28;20030;-67
2021/03/05 05:51:21;;;;;;;9.70;6.13;;;;;;;11.24;59.05;101766.09;5010608;28;20076;-66
2021/03/05 05:53:50;;;;;;;11.85;5.45;;;;;;;11.47;58.74;101769.41;4993684;28;20037;-67
2021/03/05 05:56:19;;;;;;;27.40;18.23;;;;;;;11.81;59.22;101774.81;5010408;28;20038;-66
2021/03/05 05:58:47;;;;;;;33.85;26.35;;;;;;;12.14;59.58;101777.41;5011170;28;20438;-66
2021/03/05 06:01:15;;;;;;;40.40;32.20;;;;;;;12.41;60.04;101773.66;5010371;28;20129;-67
2021/03/05 06:03:42;;;;;;;56.53;42.72;;;;;;;12.62;60.21;101774.19;5010836;28;20034;-66
2021/03/05 06:06:12;;;;;;;56.08;41.92;;;;;;;12.87;60.41;101775.63;5010677;28;20045;-67
2021/03/05 06:08:40;;;;;;;32.80;25.38;;;;;;;13.08;60.55;101768.16;5010650;28;20057;-67
2021/03/05 06:11:08;;;;;;;35.22;26.30;;;;;;;13.32;60.46;101760.78;5010391;28;20565;-67
2021/03/05 06:13:36;;;;;;;38.50;29.83;;;;;;;13.52;60.29;101758.53;5010914;28;20125;-67
2021/03/05 06:16:14;;;;;;;30.65;21.17;;;;;;;13.86;60.58;101763.56;5010549;28;20038;-67
2021/03/05 06:18:42;;;;;;;25.77;16.58;;;;;;;14.08;60.63;101770.19;5010435;28;20061;-67
2021/03/05 06:21:10;;;;;;;36.83;28.83;;;;;;;14.29;60.71;101759.94;5010235;28;20104;-67
2021/03/05 06:23:57;;;;;;;27.60;22.13;;;;;;;14.50;60.62;101767.38;5010398;28;20133;-67
2021/03/05 06:26:25;;;;;;;24.52;17.67;;;;;;;14.64;60.89;101772.88;5009361;28;20037;-67
2021/03/05 06:29:05;;;;;;;19.13;12.55;;;;;;;14.97;60.89;101767.16;5010230;28;20390;-68
2021/03/05 06:31:34;;;;;;;17.80;11.43;;;;;;;15.07;60.89;101774.41;5009662;28;20041;-67
2021/03/05 06:34:03;;;;;;;14.48;8.20;;;;;;;15.27;60.58;101777.31;5024615;28;20433;-68
2021/03/05 06:36:30;;;;;;;9.82;3.67;;;;;;;15.45;59.82;101781.09;5029238;28;20103;-67
2021/03/05 06:38:57;;;;;;;7.13;3.78;;;;;;;15.61;59.71;101781.31;5017211;28;20042;-67
2021/03/05 06:41:28;;;;;;;9.73;4.03;;;;;;;15.77;59.58;101783.28;5027677;28;20047;-68
2021/03/05 06:43:56;;;;;;;10.05;5.10;;;;;;;15.88;58.87;101782.50;5030001;28;20128;-67
2021/03/05 06:46:28;;;;;;;12.77;5.43;;;;;;;16.07;58.83;101780.03;5029410;28;20034;-67
2021/03/05 06:48:56;;;;;;;12.18;7.50;;;;;;;16.23;58.48;101787.28;5027496;28;20552;-67
2021/03/05 06:51:23;;;;;;;9.13;4.32;;;;;;;16.37;58.29;101784.72;5024215;28;20042;-67
2021/03/05 06:53:50;;;;;;;8.05;4.55;;;;;;;16.56;57.60;101784.88;5028524;28;20042;-67
2021/03/05 06:56:29;;;;;;;11.27;4.35;;;;;;;16.76;56.77;101790.41;5023651;28;20034;-68
2021/03/05 06:59:01;;;;;;;11.10;4.60;;;;;;;16.88;56.85;101777.13;5017987;28;20088;-67
2021/03/05 07:01:28;;;;;;;11.73;5.13;;;;;;;16.92;55.96;101781.63;5015373;28;20394;-67
2021/03/05 07:04:09;;;;;;;9.95;4.95;;;;;;;17.06;55.87;101779.03;5016757;28;20046;-66
2021/03/05 07:06:37;;;;;;;10.35;3.78;;;;;;;17.16;55.67;101779.97;5011495;28;20119;-67
2021/03/05 07:09:06;;;;;;;11.90;4.90;;;;;;;17.35;55.62;101784.50;5028150;28;20068;-68
2021/03/05 07:11:38;;;;;;;8.63;4.57;;;;;;;17.61;54.88;101781.94;5011549;28;20089;-67
2021/03/05 07:14:07;;;;;;;8.30;3.85;;;;;;;17.77;54.27;101781.13;5009070;28;20414;-68
2021/03/05 07:16:43;;;;;;;9.63;3.80;;;;;;;17.95;53.45;101777.59;5009580;28;20129;-67
2021/03/05 07:19:11;;;;;;;11.18;4.65;;;;;;;18.00;53.23;101779.38;5009074;28;20072;-67
2021/03/05 07:21:41;;;;;;;8.60;4.13;;;;;;;18.13;53.16;101778.50;4991745;28;20095;-67
2021/03/05 07:24:11;;;;;;;10.82;4.35;;;;;;;18.28;52.66;101782.97;5009291;28;20030;-68
2021/03/05 07:26:52;;;;;;;9.00;4.82;;;;;;;18.42;51.58;101777.63;5009138;28;20400;-67
2021/03/05 07:29:21;;;;;;;12.18;7.18;;;;;;;18.67;51.17;101769.63;5006572;28;20034;-68
2021/03/05 07:31:58;;;;;;;11.65;4.97;;;;;;;18.88;51.05;101773.16;5009961;28;20398;-69
2021/03/05 07:34:27;;;;;;;10.48;5.18;;;;;;;19.03;50.17;101762.41;5009446;28;20033;-68
2021/03/05 07:36:58;;;;;;;13.18;7.65;;;;;;;19.14;49.31;101767.72;5009266;28;20038;-68
2021/03/05 07:39:27;;;;;;;16.42;9.02;;;;;;;19.31;48.95;101764.06;5009189;28;20491;-68
2021/03/05 07:41:56;;;;;;;14.88;10.68;;;;;;;19.39;48.57;101764.94;5009904;28;20121;-69
2021/03/05 07:44:26;;;;;;;24.65;19.17;;;;;;;19.49;47.09;101769.38;5010324;28;20395;-68
2021/03/05 07:47:14;;;;;;;11.40;6.40;;;;;;;19.63;46.86;101777.34;5009195;28;20060;-68
2021/03/05 07:49:42;;;;;;;10.90;5.30;;;;;;;19.76;46.69;101772.78;5000140;28;20042;-69
2021/03/05 07:52:10;;;;;;;14.90;10.18;;;;;;;19.88;46.73;101770.97;5011206;28;20032;-68
2021/03/05 07:54:53;;;;;;;16.45;8.77;;;;;;;20.08;46.66;101770.81;5013222;28;20042;-68
2021/03/05 07:57:46;;;;;;;12.68;6.20;;;;;;;20.28;44.69;101779.56;5012468;28;20042;-68
2021/03/05 08:00:18;;;;;;;9.60;5.35;;;;;;;20.20;43.47;101785.94;5006429;28;20049;-68
2021/03/05 08:02:55;;;;;;;8.95;3.67;;;;;;;20.40;41.66;101781.31;5013063;28;20034;-69
2021/03/05 08:05:33;;;;;;;13.82;8.52;;;;;;;20.55;40.87;101786.53;5012799;28;20602;-67
2021/03/05 08:08:15;;;;;;;17.35;10.73;;;;;;;20.55;40.16;101786.53;5013487;28;20068;-68
2021/03/05 08:10:45;;;;;;;8.93;5.88;;;;;;;20.52;39.90;101791.06;5013206;28;20045;-68
2021/03/05 08:13:46;;;;;;;12.15;6.18;;;;;;;20.51;38.96;101789.28;5012799;28;20049;-68
2021/03/05 08:16:46;;;;;;;9.10;4.80;;;;;;;20.16;38.60;101787.72;5011808;28;20046;-67
2021/03/05 08:19:48;;;;;;;15.10;9.50;;;;;;;19.74;38.83;101788.91;5012269;28;20464;-66
2021/03/05 08:22:21;;;;;;;15.82;10.45;;;;;;;19.64;40.03;101786.25;4995216;28;20046;-68
2021/03/05 08:24:49;;;;;;;9.40;4.68;;;;;;;19.59;40.63;101785.41;5012915;28;20042;-67
2021/03/05 08:27:35;;;;;;;9.02;4.32;;;;;;;19.63;41.06;101788.06;5012028;28;20046;-68
2021/03/05 08:30:11;;;;;;;12.43;5.55;;;;;;;19.78;40.86;101792.44;5010320;28;20046;-67
2021/03/05 08:32:59;;;;;;;10.30;5.13;;;;;;;20.00;40.10;101787.84;5015686;28;20111;-67
2021/03/05 08:35:47;;;;;;;7.88;3.30;;;;;;;19.89;39.86;101796.84;4992879;28;20042;-67
2021/03/05 08:38:22;;;;;;;4.65;2.95;;;;;;;20.02;39.82;101791.44;4992827;28;20545;-67
2021/03/05 08:40:53;;;;;;;8.80;4.28;;;;;;;20.06;40.27;101782.44;4993128;28;20039;-67
2021/03/05 08:43:22;;;;;;;12.18;4.05;;;;;;;20.17;40.82;101785.94;4992653;28;20030;-67
2021/03/05 08:45:52;;;;;;;8.57;5.40;;;;;;;20.18;41.01;101793.09;5008449;28;20030;-67
2021/03/05 08:48:27;;;;;;;11.38;6.60;;;;;;;20.34;40.78;101792.13;5012012;28;20046;-66
2021/03/05 08:51:01;;;;;;;8.98;4.95;;;;;;;20.36;40.78;101792.97;5012419;28;20061;-67
2021/03/05 08:53:29;;;;;;;14.25;8.90;;;;;;;20.58;40.60;101783.84;5011944;28;20049;-67
2021/03/05 08:55:56;;;;;;;8.45;4.90;;;;;;;20.64;40.30;101782.88;5012455;28;20034;-67
2021/03/05 08:58:23;;;;;;;9.18;3.60;;;;;;;20.74;39.86;101798.03;5012057;28;20118;-67
2021/03/05 09:00:52;;;;;;;15.45;8.32;;;;;;;20.77;39.44;101797.97;5011963;28;20513;-67
2021/03/05 09:03:19;;;;;;;14.93;7.65;;;;;;;20.84;39.23;101793.44;5009821;28;20137;-67
2021/03/05 09:05:50;;;;;;;8.80;4.55;;;;;;;21.01;38.90;101791.44;5011701;28;20129;-67
2021/03/05 09:08:21;;;;;;;8.80;3.88;;;;;;;21.04;38.18;101788.75;5011418;28;20042;-67
2021/03/05 09:10:51;;;;;;;16.58;11.10;;;;;;;21.34;37.54;101784.81;5012124;28;20120;-67
2021/03/05 09:13:20;;;;;;;13.27;7.72;;;;;;;21.15;36.78;101785.94;5011539;28;20487;-68
2021/03/05 09:15:49;;;;;;;8.70;4.78;;;;;;;21.10;36.36;101794.03;5011326;28;20077;-67
2021/03/05 09:18:20;;;;;;;11.73;6.97;;;;;;;21.19;36.21;101796.66;5011599;28;20061;-68
2021/03/05 09:20:49;;;;;;;9.45;2.80;;;;;;;21.08;35.71;101795.84;5012027;28;20557;-67
2021/03/05 09:23:22;;;;;;;8.63;3.85;;;;;;;20.84;35.54;101791.63;5010530;28;20069;-67
2021/03/05 09:25:55;;;;;;;6.80;3.17;;;;;;;20.91;35.83;101803.19;5012027;28;20034;-67
2021/03/05 09:28:25;;;;;;;6.88;3.03;;;;;;;21.10;36.06;101796.72;5008878;28;20034;-66
2021/03/05 09:30:53;;;;;;;4.68;2.53;;;;;;;21.18;35.74;101797.56;5011802;28;20058;-66
2021/03/05 09:33:29;;;;;;;5.45;2.33;;;;;;;21.14;34.91;101792.19;5010899;28;20089;-68
2021/03/05 09:36:05;;;;;;;9.65;5.63;;;;;;;21.22;35.01;101790.34;5011257;28;20048;-67
2021/03/05 09:38:33;;;;;;;16.48;10.48;;;;;;;21.35;35.71;101792.00;5011334;28;20120;-67
2021/03/05 09:41:18;;;;;;;80.45;51.97;;;;;;;21.64;36.09;101789.81;5011308;28;20578;-68
2021/03/05 09:43:46;;;;;;;;;;;;;;;21.73;36.28;101796.84;5011739;28;20498;-68
2021/03/05 09:46:19;;;;;;;13.65;8.23;;;;;;;21.78;36.35;101789.63;5013543;28;19921;-67
2021/03/05 09:48:48;;;;;;;70.55;43.85;;;;;;;21.74;36.22;101787.88;5020592;28;20547;-67
2021/03/05 09:51:15;;;;;;;15.23;8.88;;;;;;;21.77;35.62;101793.22;5012863;28;20434;-68
2021/03/05 09:53:52;;;;;;;7.53;3.67;;;;;;;21.85;35.67;101792.22;5018770;28;20045;-68
2021/03/05 09:56:20;;;;;;;7.05;3.60;;;;;;;21.89;35.82;101787.69;5004770;28;20038;-68
2021/03/05 09:58:58;;;;;;;6.72;2.80;;;;;;;21.95;35.23;101790.28;5010439;28;20057;-68
2021/03/05 10:01:26;;;;;;;7.53;3.85;;;;;;;21.69;35.40;101779.00;5010142;28;20045;-69
2021/03/05 10:03:56;;;;;;;6.13;2.30;;;;;;;21.63;35.42;101782.66;5011581;28;20042;-68
2021/03/05 10:06:23;;;;;;;6.05;3.00;;;;;;;21.57;35.69;101787.25;5012695;28;20132;-68
2021/03/05 10:09:01;;;;;;;5.97;3.60;;;;;;;21.56;35.47;101774.72;5011012;28;20045;-69
2021/03/05 10:11:32;;;;;;;7.40;3.35;;;;;;;21.58;35.51;101776.47;5013235;28;20038;-69
2021/03/05 10:14:00;;;;;;;7.35;3.20;;;;;;;21.64;35.40;101764.75;5022904;28;20037;-70
2021/03/05 10:16:29;;;;;;;6.03;3.00;;;;;;;21.81;35.50;101771.66;5010661;28;20057;-69
2021/03/05 10:19:02;;;;;;;9.98;3.47;;;;;;;21.90;35.67;101767.94;5011249;28;20180;-69
2021/03/05 10:21:30;;;;;;;7.00;2.85;;;;;;;21.42;36.84;101769.50;5019923;28;20132;-69
2021/03/05 10:23:58;;;;;;;6.20;2.72;;;;;;;21.36;37.62;101767.78;5021354;28;20034;-69
2021/03/05 10:26:27;;;;;;;5.70;2.05;;;;;;;21.55;38.00;101760.38;5012189;28;20056;-69
2021/03/05 10:28:57;;;;;;;7.25;2.88;;;;;;;21.68;38.52;101758.41;5011055;28;20107;-68
2021/03/05 10:31:39;;;;;;;6.28;3.25;;;;;;;21.72;38.55;101765.53;5010542;28;20646;-69
2021/03/05 10:34:19;;;;;;;7.03;3.03;;;;;;;21.67;38.64;101765.56;5010443;28;20045;-69
2021/03/05 10:36:46;;;;;;;6.97;2.95;;;;;;;21.37;38.94;101750.78;5011505;28;20057;-69
2021/03/05 10:39:13;;;;;;;8.70;2.83;;;;;;;21.41;39.28;101746.22;5010078;28;20494;-68
2021/03/05 10:41:41;;;;;;;6.43;3.13;;;;;;;21.44;39.57;101744.41;5010966;28;20117;-68
2021/03/05 10:44:09;;;;;;;8.23;3.05;;;;;;;21.60;40.23;101742.38;5021041;28;20435;-69
2021/03/05 10:46:37;;;;;;;8.32;4.25;;;;;;;21.66;40.27;101730.69;5022169;28;20041;-68
2021/03/05 10:49:04;;;;;;;7.57;2.95;;;;;;;21.47;40.24;101725.53;5011178;28;20048;-69
2021/03/05 10:51:33;;;;;;;8.02;3.90;;;;;;;21.48;40.70;101726.44;5010494;28;20034;-69
2021/03/05 10:53:59;;;;;;;5.85;2.90;;;;;;;21.35;41.43;101725.72;5009504;28;20048;-68
2021/03/05 10:56:27;;;;;;;6.45;3.55;;;;;;;21.38;41.41;101719.41;5009382;28;20128;-69
2021/03/05 10:58:54;;;;;;;5.75;3.58;;;;;;;21.42;41.34;101719.34;5009970;28;20042;-69
2021/03/05 11:01:22;;;;;;;6.35;3.47;;;;;;;21.41;41.92;101720.25;5009272;28;20050;-70
2021/03/05 11:03:48;;;;;;;9.70;5.78;;;;;;;21.20;41.72;101722.34;5009345;28;20048;-68
2021/03/05 11:06:17;;;;;;;6.30;3.17;;;;;;;21.14;41.54;101730.44;5008683;28;20569;-68
2021/03/05 11:08:45;;;;;;;8.18;3.90;;;;;;;20.95;41.12;101729.75;4995308;28;20083;-68
2021/03/05 11:11:12;;;;;;;13.00;7.95;;;;;;;20.84;41.20;101720.94;5009236;28;20430;-68
2021/03/05 11:13:39;;;;;;;11.07;7.07;;;;;;;20.89;40.99;101711.03;5010386;28;20088;-69
2021/03/05 11:16:06;;;;;;;12.52;7.57;;;;;;;21.00;41.01;101711.81;5009363;28;20034;-69
2021/03/05 11:18:33;;;;;;;8.18;2.83;;;;;;;20.88;40.30;101707.47;5009793;28;20499;-69
2021/03/05 11:21:01;;;;;;;6.50;2.67;;;;;;;20.90;39.86;101704.78;5009905;28;20042;-67
2021/03/05 11:23:28;;;;;;;8.85;2.33;;;;;;;20.94;39.72;101699.34;5009380;28;20046;-69
2021/03/05 11:25:56;;;;;;;4.95;2.38;;;;;;;21.24;39.29;101700.78;5009760;28;20064;-68
2021/03/05 11:28:23;;;;;;;9.45;3.42;;;;;;;21.38;39.07;101700.63;5013732;28;20096;-68
2021/03/05 11:30:52;;;;;;;178.27;83.63;;;;;;;21.63;38.73;101701.16;5013630;28;20058;-68
2021/03/05 11:33:19;;;;;;;52.92;24.08;;;;;;;21.75;38.85;101699.16;5013612;28;20046;-69
2021/03/05 11:35:47;;;;;;;7.63;4.20;;;;;;;21.94;39.47;101699.75;5013534;28;20033;-69
2021/03/05 11:38:14;;;;;;;9.55;5.28;;;;;;;21.97;40.27;101685.41;5013236;28;20125;-68
2021/03/05 11:40:41;;;;;;;8.65;3.55;;;;;;;22.41;39.82;101701.66;5013961;28;20049;-68